^^
Your Local Weather - Clay, NY Station Historical Data
Daily Summary for February 5, 2018 Units:  Both    English   Metric
« Previous Day
Next Day »
Daily Weekly Monthly Yearly Custom
  High: Low: Average:
Temperature: 32.0 °F /  0 °C 6.3 °F /  -14.3 °C 17.8 °F /  -7.9 °C
Dew Point: 30.2 °F /  -1 °C 0.8 °F /  -17.3 °C 11.4 °F /  -11.4 °C
Humidity: 93% 55% 76%
Wind Speed: 7.0mph /  11.3km/h - 2.6mph /  4.2km/h
Wind Gust: 12.0mph /  19.3km/h - -
Wind- - WNW
Pressure: 30.22 in /  1023.2 hPa 29.65 in /  1003.9 hPa -
Precipitation: 0.00 in /  0 mm    
Historical Graphs
 
 
Tabular Data for February 5, 2018
Time Temperature Dew Point Pressure Wind Wind Speed Wind Gust Humidity Rainfall Rate (Hourly) solar
00:04 30.0 °F /  -1.1 °C 28.2 °F /  -2.1 °C 29.65in /  1003.9hPa Calm     93% 0.00in /  0mm 0 W/m2
00:10 30.0 °F /  -1.1 °C 28.2 °F /  -2.1 °C 29.65in /  1003.9hPa Calm     93% 0.00in /  0mm 0 W/m2
00:16 30.1 °F /  -1.1 °C 28.3 °F /  -2.1 °C 29.65in /  1003.9hPa Calm     93% 0.00in /  0mm 0 W/m2
00:22 30.1 °F /  -1.1 °C 28.3 °F /  -2.1 °C 29.65in /  1003.9hPa Calm     93% 0.00in /  0mm 0 W/m2
00:28 30.2 °F /  -1 °C 28.4 °F /  -2 °C 29.65in /  1003.9hPa Calm     93% 0.00in /  0mm 0 W/m2
00:34 30.2 °F /  -1 °C 28.4 °F /  -2 °C 29.65in /  1003.9hPa Calm     93% 0.00in /  0mm 0 W/m2
00:40 30.3 °F /  -0.9 °C 28.5 °F /  -1.9 °C 29.65in /  1003.9hPa Calm     93% 0.00in /  0mm 0 W/m2
00:46 30.2 °F /  -1 °C 28.4 °F /  -2 °C 29.65in /  1003.9hPa Calm     93% 0.00in /  0mm 0 W/m2
00:52 30.3 °F /  -0.9 °C 28.5 °F /  -1.9 °C 29.65in /  1003.9hPa Calm     93% 0.00in /  0mm 0 W/m2
00:58 30.3 °F /  -0.9 °C 28.5 °F /  -1.9 °C 29.65in /  1003.9hPa Calm     93% 0.00in /  0mm 0 W/m2
01:04 30.3 °F /  -0.9 °C 28.5 °F /  -1.9 °C 29.65in /  1003.9hPa Calm     93% 0.00in /  0mm 0 W/m2
01:10 30.4 °F /  -0.9 °C 28.6 °F /  -1.9 °C 29.66in /  1004.3hPa Calm     93% 0.00in /  0mm 0 W/m2
01:16 30.8 °F /  -0.7 °C 29.0 °F /  -1.7 °C 29.66in /  1004.3hPa Calm     93% 0.00in /  0mm 0 W/m2
01:22 31.3 °F /  -0.4 °C 29.5 °F /  -1.4 °C 29.66in /  1004.3hPa Calm     93% 0.00in /  0mm 0 W/m2
01:28 31.7 °F /  -0.2 °C 29.9 °F /  -1.2 °C 29.66in /  1004.3hPa Calm     93% 0.00in /  0mm 0 W/m2
01:34 31.8 °F /  -0.1 °C 30.0 °F /  -1.1 °C 29.66in /  1004.3hPa Calm     93% 0.00in /  0mm 0 W/m2
01:40 32.0 °F /  0 °C 30.2 °F /  -1 °C 29.67in /  1004.6hPa Calm     93% 0.00in /  0mm 0 W/m2
01:46 32.0 °F /  0 °C 30.2 °F /  -1 °C 29.67in /  1004.6hPa Calm   2.0mph /  3.2km/h 93% 0.00in /  0mm 0 W/m2
01:52 30.9 °F /  -0.6 °C 29.1 °F /  -1.6 °C 29.68in /  1005hPa NW 3.0mph /  4.8km/h 6.0mph /  9.7km/h 93% 0.00in /  0mm 0 W/m2
01:58 30.2 °F /  -1 °C 28.4 °F /  -2 °C 29.68in /  1005hPa West 5.0mph /  8km/h 7.0mph /  11.3km/h 93% 0.00in /  0mm 0 W/m2
02:04 29.6 °F /  -1.3 °C 27.8 °F /  -2.3 °C 29.69in /  1005.3hPa WNW 5.0mph /  8km/h 8.0mph /  12.9km/h 93% 0.00in /  0mm 0 W/m2
02:10 29.1 °F /  -1.6 °C 27.3 °F /  -2.6 °C 29.70in /  1005.6hPa WNW 4.0mph /  6.4km/h 4.0mph /  6.4km/h 93% 0.00in /  0mm 0 W/m2
02:16 28.8 °F /  -1.8 °C 27.0 °F /  -2.8 °C 29.70in /  1005.6hPa NW 4.0mph /  6.4km/h 4.0mph /  6.4km/h 93% 0.00in /  0mm 0 W/m2
02:22 28.5 °F /  -1.9 °C 26.7 °F /  -2.9 °C 29.70in /  1005.6hPa NW 4.0mph /  6.4km/h 6.0mph /  9.7km/h 93% 0.00in /  0mm 0 W/m2
02:28 28.4 °F /  -2 °C 26.6 °F /  -3 °C 29.71in /  1006hPa West 4.0mph /  6.4km/h 6.0mph /  9.7km/h 93% 0.00in /  0mm 0 W/m2
02:34 28.0 °F /  -2.2 °C 26.0 °F /  -3.3 °C 29.71in /  1006hPa NW 4.0mph /  6.4km/h 4.0mph /  6.4km/h 92% 0.00in /  0mm 0 W/m2
02:40 27.8 °F /  -2.3 °C 26.0 °F /  -3.3 °C 29.72in /  1006.3hPa West 4.0mph /  6.4km/h 5.0mph /  8km/h 93% 0.00in /  0mm 0 W/m2
02:46 27.7 °F /  -2.4 °C 25.7 °F /  -3.5 °C 29.73in /  1006.7hPa WNW 4.0mph /  6.4km/h 5.0mph /  8km/h 92% 0.00in /  0mm 0 W/m2
02:52 27.4 °F /  -2.6 °C 25.4 °F /  -3.7 °C 29.73in /  1006.7hPa WNW 4.0mph /  6.4km/h 8.0mph /  12.9km/h 92% 0.00in /  0mm 0 W/m2
02:58 27.2 °F /  -2.7 °C 25.2 °F /  -3.8 °C 29.74in /  1007hPa WNW 4.0mph /  6.4km/h 8.0mph /  12.9km/h 92% 0.00in /  0mm 0 W/m2
03:04 26.9 °F /  -2.8 °C 24.9 °F /  -3.9 °C 29.74in /  1007hPa WNW 4.0mph /  6.4km/h 6.0mph /  9.7km/h 92% 0.00in /  0mm 0 W/m2
03:10 26.7 °F /  -2.9 °C 24.7 °F /  -4.1 °C 29.75in /  1007.3hPa WNW 4.0mph /  6.4km/h 5.0mph /  8km/h 92% 0.00in /  0mm 0 W/m2
03:16 26.5 °F /  -3.1 °C 24.5 °F /  -4.2 °C 29.75in /  1007.3hPa WNW 4.0mph /  6.4km/h 5.0mph /  8km/h 92% 0.00in /  0mm 0 W/m2
03:22 26.3 °F /  -3.2 °C 24.3 °F /  -4.3 °C 29.76in /  1007.7hPa WNW 4.0mph /  6.4km/h 10.0mph /  16.1km/h 92% 0.00in /  0mm 0 W/m2
03:28 25.8 °F /  -3.4 °C 23.5 °F /  -4.7 °C 29.77in /  1008hPa West 5.0mph /  8km/h 10.0mph /  16.1km/h 91% 0.00in /  0mm 0 W/m2
03:34 25.4 °F /  -3.7 °C 23.1 °F /  -4.9 °C 29.77in /  1008hPa WNW 6.0mph /  9.7km/h 7.0mph /  11.3km/h 91% 0.00in /  0mm 0 W/m2
03:40 25.0 °F /  -3.9 °C 22.7 °F /  -5.2 °C 29.77in /  1008hPa WNW 6.0mph /  9.7km/h 9.0mph /  14.5km/h 91% 0.00in /  0mm 0 W/m2
03:46 24.5 °F /  -4.2 °C 22.0 °F /  -5.6 °C 29.78in /  1008.4hPa West 6.0mph /  9.7km/h 9.0mph /  14.5km/h 90% 0.00in /  0mm 0 W/m2
03:54 24.1 °F /  -4.4 °C 21.6 °F /  -5.8 °C 29.79in /  1008.7hPa West 6.0mph /  9.7km/h 6.0mph /  9.7km/h 90% 0.00in /  0mm 0 W/m2
04:00 24.0 °F /  -4.4 °C 21.5 °F /  -5.8 °C 29.79in /  1008.7hPa WNW 5.0mph /  8km/h 7.0mph /  11.3km/h 90% 0.00in /  0mm 0 W/m2
04:06 23.7 °F /  -4.6 °C 21.2 °F /  -6 °C 29.80in /  1009hPa WNW 5.0mph /  8km/h 9.0mph /  14.5km/h 90% 0.00in /  0mm 0 W/m2
04:12 23.3 °F /  -4.8 °C 20.8 °F /  -6.2 °C 29.81in /  1009.4hPa WNW 5.0mph /  8km/h 7.0mph /  11.3km/h 90% 0.00in /  0mm 0 W/m2
04:18 23.1 °F /  -4.9 °C 20.6 °F /  -6.3 °C 29.82in /  1009.7hPa NW 4.0mph /  6.4km/h 7.0mph /  11.3km/h 90% 0.00in /  0mm 0 W/m2
04:24 22.8 °F /  -5.1 °C 20.3 °F /  -6.5 °C 29.82in /  1009.7hPa WNW 5.0mph /  8km/h 9.0mph /  14.5km/h 90% 0.00in /  0mm 0 W/m2
04:30 22.7 °F /  -5.2 °C 20.2 °F /  -6.6 °C 29.82in /  1009.7hPa West 5.0mph /  8km/h 5.0mph /  8km/h 90% 0.00in /  0mm 0 W/m2
04:36 22.3 °F /  -5.4 °C 19.6 °F /  -6.9 °C 29.83in /  1010hPa West 5.0mph /  8km/h 10.0mph /  16.1km/h 89% 0.00in /  0mm 0 W/m2
04:42 22.1 °F /  -5.5 °C 19.4 °F /  -7 °C 29.84in /  1010.4hPa NW 5.0mph /  8km/h 8.0mph /  12.9km/h 89% 0.00in /  0mm 0 W/m2
04:48 21.9 °F /  -5.6 °C 19.2 °F /  -7.1 °C 29.84in /  1010.4hPa WNW 5.0mph /  8km/h 8.0mph /  12.9km/h 89% 0.00in /  0mm 0 W/m2
04:54 21.6 °F /  -5.8 °C 18.9 °F /  -7.3 °C 29.85in /  1010.7hPa NW 5.0mph /  8km/h 9.0mph /  14.5km/h 89% 0.00in /  0mm 0 W/m2
05:00 21.2 °F /  -6 °C 18.5 °F /  -7.5 °C 29.85in /  1010.7hPa WNW 4.0mph /  6.4km/h 4.0mph /  6.4km/h 89% 0.00in /  0mm 0 W/m2
05:06 21.0 °F /  -6.1 °C 18.3 °F /  -7.6 °C 29.86in /  1011.1hPa NW 4.0mph /  6.4km/h 6.0mph /  9.7km/h 89% 0.00in /  0mm 0 W/m2
05:12 20.8 °F /  -6.2 °C 18.3 °F /  -7.6 °C 29.87in /  1011.4hPa West 4.0mph /  6.4km/h 7.0mph /  11.3km/h 90% 0.00in /  0mm 0 W/m2
05:18 20.6 °F /  -6.3 °C 18.1 °F /  -7.7 °C 29.87in /  1011.4hPa WNW 4.0mph /  6.4km/h 7.0mph /  11.3km/h 90% 0.00in /  0mm 0 W/m2
05:24 20.4 °F /  -6.4 °C 17.9 °F /  -7.8 °C 29.88in /  1011.7hPa NW 4.0mph /  6.4km/h 7.0mph /  11.3km/h 90% 0.00in /  0mm 0 W/m2
05:30 20.3 °F /  -6.5 °C 17.8 °F /  -7.9 °C 29.89in /  1012.1hPa WNW 4.0mph /  6.4km/h 4.0mph /  6.4km/h 90% 0.00in /  0mm 0 W/m2
05:36 20.1 °F /  -6.6 °C 17.6 °F /  -8 °C 29.89in /  1012.1hPa WNW 4.0mph /  6.4km/h 5.0mph /  8km/h 90% 0.00in /  0mm 0 W/m2
05:42 20.0 °F /  -6.7 °C 17.5 °F /  -8.1 °C 29.90in /  1012.4hPa WNW 5.0mph /  8km/h 5.0mph /  8km/h 90% 0.00in /  0mm 0 W/m2
05:48 19.9 °F /  -6.7 °C 17.4 °F /  -8.1 °C 29.90in /  1012.4hPa NW 5.0mph /  8km/h 6.0mph /  9.7km/h 90% 0.00in /  0mm 0 W/m2
05:54 19.8 °F /  -6.8 °C 17.3 °F /  -8.2 °C 29.90in /  1012.4hPa West 4.0mph /  6.4km/h 6.0mph /  9.7km/h 90% 0.00in /  0mm 0 W/m2
06:00 19.6 °F /  -6.9 °C 17.1 °F /  -8.3 °C 29.91in /  1012.8hPa WNW 4.0mph /  6.4km/h 8.0mph /  12.9km/h 90% 0.00in /  0mm 0 W/m2
06:06 19.5 °F /  -6.9 °C 16.8 °F /  -8.4 °C 29.92in /  1013.1hPa NW 4.0mph /  6.4km/h 8.0mph /  12.9km/h 89% 0.00in /  0mm 0 W/m2
06:12 19.2 °F /  -7.1 °C 16.5 °F /  -8.6 °C 29.92in /  1013.1hPa WNW 4.0mph /  6.4km/h 5.0mph /  8km/h 89% 0.00in /  0mm 0 W/m2
06:18 19.1 °F /  -7.2 °C 16.4 °F /  -8.7 °C 29.93in /  1013.4hPa NW 4.0mph /  6.4km/h 5.0mph /  8km/h 89% 0.00in /  0mm 0 W/m2
06:24 19.0 °F /  -7.2 °C 16.3 °F /  -8.7 °C 29.94in /  1013.8hPa NNW 4.0mph /  6.4km/h 4.0mph /  6.4km/h 89% 0.00in /  0mm 0 W/m2
06:30 19.0 °F /  -7.2 °C 16.3 °F /  -8.7 °C 29.94in /  1013.8hPa WNW 4.0mph /  6.4km/h 5.0mph /  8km/h 89% 0.00in /  0mm 0 W/m2
06:36 18.9 °F /  -7.3 °C 16.2 °F /  -8.8 °C 29.95in /  1014.1hPa NW 3.0mph /  4.8km/h 5.0mph /  8km/h 89% 0.00in /  0mm 0 W/m2
06:42 18.7 °F /  -7.4 °C 16.0 °F /  -8.9 °C 29.95in /  1014.1hPa West 4.0mph /  6.4km/h 6.0mph /  9.7km/h 89% 0.00in /  0mm 0 W/m2
06:48 18.4 °F /  -7.6 °C 15.4 °F /  -9.2 °C 29.96in /  1014.4hPa West 5.0mph /  8km/h 8.0mph /  12.9km/h 88% 0.00in /  0mm 0 W/m2
06:54 18.2 °F /  -7.7 °C 15.2 °F /  -9.3 °C 29.97in /  1014.8hPa NW 5.0mph /  8km/h 5.0mph /  8km/h 88% 0.00in /  0mm 0 W/m2
07:00 18.0 °F /  -7.8 °C 14.8 °F /  -9.6 °C 29.98in /  1015.1hPa WNW 3.0mph /  4.8km/h 5.0mph /  8km/h 87% 0.00in /  0mm 0 W/m2
07:06 17.7 °F /  -7.9 °C 14.2 °F /  -9.9 °C 29.99in /  1015.5hPa West 4.0mph /  6.4km/h 5.0mph /  8km/h 86% 0.00in /  0mm 0 W/m2
07:12 17.4 °F /  -8.1 °C 13.7 °F /  -10.2 °C 30.00in /  1015.8hPa WNW 6.0mph /  9.7km/h 6.0mph /  9.7km/h 85% 0.00in /  0mm 0 W/m2
07:18 17.2 °F /  -8.2 °C 12.9 °F /  -10.6 °C 30.00in /  1015.8hPa West 5.0mph /  8km/h 6.0mph /  9.7km/h 83% 0.00in /  0mm 0 W/m2
07:24 17.0 °F /  -8.3 °C 12.2 °F /  -11 °C 30.01in /  1016.1hPa West 4.0mph /  6.4km/h 5.0mph /  8km/h 81% 0.00in /  0mm 0 W/m2
07:30 16.8 °F /  -8.4 °C 11.7 °F /  -11.3 °C 30.02in /  1016.5hPa WNW 4.0mph /  6.4km/h 4.0mph /  6.4km/h 80% 0.00in /  0mm 5 W/m2
07:36 16.6 °F /  -8.6 °C 11.5 °F /  -11.4 °C 30.03in /  1016.8hPa NW 5.0mph /  8km/h 6.0mph /  9.7km/h 80% 0.00in /  0mm 5 W/m2
07:42 16.5 °F /  -8.6 °C 11.1 °F /  -11.6 °C 30.03in /  1016.8hPa WNW 5.0mph /  8km/h 7.0mph /  11.3km/h 79% 0.00in /  0mm 7 W/m2
07:48 16.4 °F /  -8.7 °C 11.0 °F /  -11.7 °C 30.04in /  1017.2hPa WNW 5.0mph /  8km/h 7.0mph /  11.3km/h 79% 0.00in /  0mm 11 W/m2
07:54 16.2 °F /  -8.8 °C 10.5 °F /  -11.9 °C 30.04in /  1017.2hPa NW 5.0mph /  8km/h 11.0mph /  17.7km/h 78% 0.00in /  0mm 14 W/m2
08:00 15.9 °F /  -8.9 °C 10.3 °F /  -12.1 °C 30.05in /  1017.5hPa West 6.0mph /  9.7km/h 6.0mph /  9.7km/h 78% 0.00in /  0mm 18 W/m2
08:06 15.8 °F /  -9 °C 10.2 °F /  -12.1 °C 30.06in /  1017.8hPa WNW 5.0mph /  8km/h 6.0mph /  9.7km/h 78% 0.00in /  0mm 21 W/m2
08:12 15.7 °F /  -9.1 °C 10.1 °F /  -12.2 °C 30.06in /  1017.8hPa WNW 5.0mph /  8km/h 6.0mph /  9.7km/h 78% 0.00in /  0mm 21 W/m2
08:18 15.7 °F /  -9.1 °C 10.1 °F /  -12.2 °C 30.07in /  1018.2hPa WNW 4.0mph /  6.4km/h 6.0mph /  9.7km/h 78% 0.00in /  0mm 26 W/m2
08:24 15.4 °F /  -9.2 °C 9.2 °F /  -12.7 °C 30.08in /  1018.5hPa WNW 3.0mph /  4.8km/h 7.0mph /  11.3km/h 76% 0.00in /  0mm 30 W/m2
08:30 15.3 °F /  -9.3 °C 9.1 °F /  -12.7 °C 30.08in /  1018.5hPa NW 4.0mph /  6.4km/h 4.0mph /  6.4km/h 76% 0.00in /  0mm 39 W/m2
08:36 15.3 °F /  -9.3 °C 8.8 °F /  -12.9 °C 30.08in /  1018.5hPa NW 4.0mph /  6.4km/h 7.0mph /  11.3km/h 75% 0.00in /  0mm 28 W/m2
08:42 15.2 °F /  -9.3 °C 9.0 °F /  -12.8 °C 30.09in /  1018.8hPa WNW 3.0mph /  4.8km/h 4.0mph /  6.4km/h 76% 0.00in /  0mm 46 W/m2
08:48 15.1 °F /  -9.4 °C 8.6 °F /  -13 °C 30.09in /  1018.8hPa NW 3.0mph /  4.8km/h 4.0mph /  6.4km/h 75% 0.00in /  0mm 42 W/m2
08:54 15.0 °F /  -9.4 °C 8.5 °F /  -13.1 °C 30.09in /  1018.8hPa WNW 4.0mph /  6.4km/h 7.0mph /  11.3km/h 75% 0.00in /  0mm 53 W/m2
09:00 15.0 °F /  -9.4 °C 8.5 °F /  -13.1 °C 30.10in /  1019.2hPa NW 4.0mph /  6.4km/h 4.0mph /  6.4km/h 75% 0.00in /  0mm 100 W/m2
09:06 15.5 °F /  -9.2 °C 9.0 °F /  -12.8 °C 30.10in /  1019.2hPa WNW 4.0mph /  6.4km/h 5.0mph /  8km/h 75% 0.00in /  0mm 83 W/m2
09:12 15.5 °F /  -9.2 °C 8.4 °F /  -13.1 °C 30.10in /  1019.2hPa WNW 4.0mph /  6.4km/h 4.0mph /  6.4km/h 73% 0.00in /  0mm 49 W/m2
09:18 15.2 °F /  -9.3 °C 7.8 °F /  -13.4 °C 30.11in /  1019.5hPa WNW 4.0mph /  6.4km/h 4.0mph /  6.4km/h 72% 0.00in /  0mm 102 W/m2
09:24 15.5 °F /  -9.2 °C 8.1 °F /  -13.3 °C 30.11in /  1019.5hPa NW 4.0mph /  6.4km/h 8.0mph /  12.9km/h 72% 0.00in /  0mm 98 W/m2
09:30 15.4 °F /  -9.2 °C 7.4 °F /  -13.7 °C 30.11in /  1019.5hPa North 5.0mph /  8km/h 5.0mph /  8km/h 70% 0.00in /  0mm 42 W/m2
09:36 15.5 °F /  -9.2 °C 7.5 °F /  -13.6 °C 30.11in /  1019.5hPa NW 5.0mph /  8km/h 6.0mph /  9.7km/h 70% 0.00in /  0mm 102 W/m2
09:42 15.9 °F /  -8.9 °C 7.5 °F /  -13.6 °C 30.11in /  1019.5hPa WNW 4.0mph /  6.4km/h 6.0mph /  9.7km/h 69% 0.00in /  0mm 100 W/m2
09:48 16.2 °F /  -8.8 °C 7.5 °F /  -13.6 °C 30.12in /  1019.9hPa SW 4.0mph /  6.4km/h 7.0mph /  11.3km/h 68% 0.00in /  0mm 102 W/m2
09:54 16.5 °F /  -8.6 °C 7.4 °F /  -13.7 °C 30.12in /  1019.9hPa NW 4.0mph /  6.4km/h 4.0mph /  6.4km/h 67% 0.00in /  0mm 109 W/m2
10:00 16.3 °F /  -8.7 °C 6.6 °F /  -14.1 °C 30.12in /  1019.9hPa WNW 5.0mph /  8km/h 5.0mph /  8km/h 65% 0.00in /  0mm 111 W/m2
10:06 16.4 °F /  -8.7 °C 6.0 °F /  -14.4 °C 30.13in /  1020.2hPa WNW 6.0mph /  9.7km/h 6.0mph /  9.7km/h 63% 0.00in /  0mm 105 W/m2
10:12 16.6 °F /  -8.6 °C 5.8 °F /  -14.6 °C 30.14in /  1020.5hPa NW 5.0mph /  8km/h 6.0mph /  9.7km/h 62% 0.00in /  0mm 128 W/m2
10:18 16.4 °F /  -8.7 °C 4.9 °F /  -15.1 °C 30.14in /  1020.5hPa WNW 6.0mph /  9.7km/h 12.0mph /  19.3km/h 60% 0.00in /  0mm 63 W/m2
10:24 16.4 °F /  -8.7 °C 4.9 °F /  -15.1 °C 30.15in /  1020.9hPa North 6.0mph /  9.7km/h 6.0mph /  9.7km/h 60% 0.00in /  0mm 40 W/m2
10:30 16.8 °F /  -8.4 °C 4.9 °F /  -15.1 °C 30.16in /  1021.2hPa West 6.0mph /  9.7km/h 9.0mph /  14.5km/h 59% 0.00in /  0mm 118 W/m2
10:36 17.0 °F /  -8.3 °C 4.4 °F /  -15.3 °C 30.17in /  1021.6hPa NW 5.0mph /  8km/h 9.0mph /  14.5km/h 57% 0.00in /  0mm 118 W/m2
10:42 17.2 °F /  -8.2 °C 4.6 °F /  -15.2 °C 30.17in /  1021.6hPa West 5.0mph /  8km/h 6.0mph /  9.7km/h 57% 0.00in /  0mm 111 W/m2
10:48 17.5 °F /  -8.1 °C 5.2 °F /  -14.9 °C 30.17in /  1021.6hPa West 5.0mph /  8km/h 12.0mph /  19.3km/h 58% 0.00in /  0mm 107 W/m2
10:54 17.1 °F /  -8.3 °C 4.5 °F /  -15.3 °C 30.17in /  1021.6hPa NW 6.0mph /  9.7km/h 6.0mph /  9.7km/h 57% 0.00in /  0mm 107 W/m2
11:00 17.5 °F /  -8.1 °C 5.2 °F /  -14.9 °C 30.17in /  1021.6hPa WNW 6.0mph /  9.7km/h 6.0mph /  9.7km/h 58% 0.00in /  0mm 107 W/m2
11:06 17.4 °F /  -8.1 °C 4.7 °F /  -15.2 °C 30.18in /  1021.9hPa NW 6.0mph /  9.7km/h 6.0mph /  9.7km/h 57% 0.00in /  0mm 109 W/m2
11:12 17.5 °F /  -8.1 °C 4.1 °F /  -15.5 °C 30.17in /  1021.6hPa WNW 6.0mph /  9.7km/h 6.0mph /  9.7km/h 55% 0.00in /  0mm 102 W/m2
11:18 17.5 °F /  -8.1 °C 4.5 °F /  -15.3 °C 30.18in /  1021.9hPa West 6.0mph /  9.7km/h 7.0mph /  11.3km/h 56% 0.00in /  0mm 105 W/m2
11:24 17.6 °F /  -8 °C 4.5 °F /  -15.3 °C 30.18in /  1021.9hPa West 5.0mph /  8km/h 11.0mph /  17.7km/h 56% 0.00in /  0mm 102 W/m2
11:30 17.7 °F /  -7.9 °C 4.6 °F /  -15.2 °C 30.19in /  1022.2hPa WNW 5.0mph /  8km/h 5.0mph /  8km/h 56% 0.00in /  0mm 105 W/m2
11:36 17.4 °F /  -8.1 °C 4.4 °F /  -15.3 °C 30.19in /  1022.2hPa WNW 5.0mph /  8km/h 5.0mph /  8km/h 56% 0.00in /  0mm 139 W/m2
11:42 18.1 °F /  -7.7 °C 5.8 °F /  -14.6 °C 30.19in /  1022.2hPa WNW 5.0mph /  8km/h 5.0mph /  8km/h 58% 0.00in /  0mm 236 W/m2
11:48 19.5 °F /  -6.9 °C 6.7 °F /  -14.1 °C 30.19in /  1022.2hPa WNW 5.0mph /  8km/h 5.0mph /  8km/h 57% 0.00in /  0mm 306 W/m2
11:54 18.2 °F /  -7.7 °C 4.7 °F /  -15.2 °C 30.19in /  1022.2hPa WNW 6.0mph /  9.7km/h 9.0mph /  14.5km/h 55% 0.00in /  0mm 281 W/m2
12:00 17.5 °F /  -8.1 °C 5.6 °F /  -14.7 °C 30.19in /  1022.2hPa WNW 7.0mph /  11.3km/h 7.0mph /  11.3km/h 59% 0.00in /  0mm 374 W/m2
12:06 17.9 °F /  -7.8 °C 6.3 °F /  -14.3 °C 30.19in /  1022.2hPa WNW 6.0mph /  9.7km/h 8.0mph /  12.9km/h 60% 0.00in /  0mm 729 W/m2
12:12 19.2 °F /  -7.1 °C 7.2 °F /  -13.8 °C 30.19in /  1022.2hPa NW 5.0mph /  8km/h 6.0mph /  9.7km/h 59% 0.00in /  0mm 772 W/m2
12:18 18.8 °F /  -7.3 °C 6.8 °F /  -14 °C 30.19in /  1022.2hPa NW 5.0mph /  8km/h 7.0mph /  11.3km/h 59% 0.00in /  0mm 536 W/m2
12:24 18.3 °F /  -7.6 °C 7.4 °F /  -13.7 °C 30.19in /  1022.2hPa NW 5.0mph /  8km/h 5.0mph /  8km/h 62% 0.00in /  0mm 311 W/m2
12:30 17.7 °F /  -7.9 °C 7.6 °F /  -13.6 °C 30.19in /  1022.2hPa NW 5.0mph /  8km/h 5.0mph /  8km/h 64% 0.00in /  0mm 281 W/m2
12:36 17.5 °F /  -8.1 °C 7.4 °F /  -13.7 °C 30.19in /  1022.2hPa WNW 4.0mph /  6.4km/h 5.0mph /  8km/h 64% 0.00in /  0mm 311 W/m2
12:42 17.8 °F /  -7.9 °C 8.0 °F /  -13.3 °C 30.19in /  1022.2hPa NW 4.0mph /  6.4km/h 7.0mph /  11.3km/h 65% 0.00in /  0mm 292 W/m2
12:48 18.0 °F /  -7.8 °C 8.5 °F /  -13.1 °C 30.18in /  1021.9hPa NW 3.0mph /  4.8km/h 7.0mph /  11.3km/h 66% 0.00in /  0mm 302 W/m2
12:54 17.5 °F /  -8.1 °C 8.4 °F /  -13.1 °C 30.18in /  1021.9hPa NW 3.0mph /  4.8km/h 6.0mph /  9.7km/h 67% 0.00in /  0mm 287 W/m2
13:00 18.0 °F /  -7.8 °C 9.5 °F /  -12.5 °C 30.18in /  1021.9hPa NNW 3.0mph /  4.8km/h 3.0mph /  4.8km/h 69% 0.00in /  0mm 334 W/m2
13:06 18.3 °F /  -7.6 °C 9.2 °F /  -12.7 °C 30.18in /  1021.9hPa NNW 3.0mph /  4.8km/h 3.0mph /  4.8km/h 67% 0.00in /  0mm 290 W/m2
13:12 18.1 °F /  -7.7 °C 9.0 °F /  -12.8 °C 30.18in /  1021.9hPa WNW 2.0mph /  3.2km/h 3.0mph /  4.8km/h 67% 0.00in /  0mm 271 W/m2
13:18 18.2 °F /  -7.7 °C 9.4 °F /  -12.6 °C 30.17in /  1021.6hPa WNW 2.0mph /  3.2km/h 3.0mph /  4.8km/h 68% 0.00in /  0mm 295 W/m2
13:24 18.1 °F /  -7.7 °C 9.3 °F /  -12.6 °C 30.17in /  1021.6hPa WNW 2.0mph /  3.2km/h 3.0mph /  4.8km/h 68% 0.00in /  0mm 306 W/m2
13:30 17.9 °F /  -7.8 °C 9.4 °F /  -12.6 °C 30.17in /  1021.6hPa WSW 2.0mph /  3.2km/h 2.0mph /  3.2km/h 69% 0.00in /  0mm 267 W/m2
13:36 18.2 °F /  -7.7 °C 9.7 °F /  -12.4 °C 30.17in /  1021.6hPa NNW 1.0mph /  1.6km/h 2.0mph /  3.2km/h 69% 0.00in /  0mm 248 W/m2
13:42 18.2 °F /  -7.7 °C 10.1 °F /  -12.2 °C 30.16in /  1021.2hPa WSW 2.0mph /  3.2km/h 3.0mph /  4.8km/h 70% 0.00in /  0mm 239 W/m2
13:48 18.1 °F /  -7.7 °C 10.3 °F /  -12.1 °C 30.15in /  1020.9hPa WSW 1.0mph /  1.6km/h 3.0mph /  4.8km/h 71% 0.00in /  0mm 214 W/m2
13:54 17.9 °F /  -7.8 °C 10.1 °F /  -12.2 °C 30.15in /  1020.9hPa WSW 1.0mph /  1.6km/h 2.0mph /  3.2km/h 71% 0.00in /  0mm 197 W/m2
14:00 17.9 °F /  -7.8 °C 10.1 °F /  -12.2 °C 30.15in /  1020.9hPa WSW 1.0mph /  1.6km/h 1.0mph /  1.6km/h 71% 0.00in /  0mm 246 W/m2
14:06 18.8 °F /  -7.3 °C 11.3 °F /  -11.5 °C 30.15in /  1020.9hPa Calm   2.0mph /  3.2km/h 72% 0.00in /  0mm 260 W/m2
14:12 18.7 °F /  -7.4 °C 10.9 °F /  -11.7 °C 30.15in /  1020.9hPa WNW 1.0mph /  1.6km/h 3.0mph /  4.8km/h 71% 0.00in /  0mm 248 W/m2
14:18 18.8 °F /  -7.3 °C 11.6 °F /  -11.3 °C 30.15in /  1020.9hPa WNW 1.0mph /  1.6km/h 3.0mph /  4.8km/h 73% 0.00in /  0mm 269 W/m2
14:24 19.0 °F /  -7.2 °C 11.5 °F /  -11.4 °C 30.15in /  1020.9hPa WNW 1.0mph /  1.6km/h 2.0mph /  3.2km/h 72% 0.00in /  0mm 183 W/m2
14:30 19.6 °F /  -6.9 °C 12.0 °F /  -11.1 °C 30.16in /  1021.2hPa WNW 2.0mph /  3.2km/h 2.0mph /  3.2km/h 72% 0.00in /  0mm 619 W/m2
14:36 19.8 °F /  -6.8 °C 11.3 °F /  -11.5 °C 30.16in /  1021.2hPa WNW 3.0mph /  4.8km/h 4.0mph /  6.4km/h 69% 0.00in /  0mm 230 W/m2
14:42 19.3 °F /  -7.1 °C 10.5 °F /  -11.9 °C 30.16in /  1021.2hPa WSW 3.0mph /  4.8km/h 3.0mph /  4.8km/h 68% 0.00in /  0mm 223 W/m2
14:48 19.8 °F /  -6.8 °C 11.3 °F /  -11.5 °C 30.16in /  1021.2hPa WNW 3.0mph /  4.8km/h 4.0mph /  6.4km/h 69% 0.00in /  0mm 380 W/m2
14:54 20.7 °F /  -6.3 °C 11.5 °F /  -11.4 °C 30.16in /  1021.2hPa WNW 3.0mph /  4.8km/h 5.0mph /  8km/h 67% 0.00in /  0mm 288 W/m2
15:00 20.0 °F /  -6.7 °C 10.5 °F /  -11.9 °C 30.15in /  1020.9hPa WSW 4.0mph /  6.4km/h 5.0mph /  8km/h 66% 0.00in /  0mm 369 W/m2
15:06 20.1 °F /  -6.6 °C 9.9 °F /  -12.3 °C 30.16in /  1021.2hPa NW 3.0mph /  4.8km/h 5.0mph /  8km/h 64% 0.00in /  0mm 197 W/m2
15:12 20.2 °F /  -6.6 °C 11.0 °F /  -11.7 °C 30.16in /  1021.2hPa SW 3.0mph /  4.8km/h 3.0mph /  4.8km/h 67% 0.00in /  0mm 492 W/m2
15:18 21.5 °F /  -5.8 °C 12.2 °F /  -11 °C 30.16in /  1021.2hPa WSW 2.0mph /  3.2km/h 3.0mph /  4.8km/h 67% 0.00in /  0mm 457 W/m2
15:24 21.4 °F /  -5.9 °C 11.5 °F /  -11.4 °C 30.16in /  1021.2hPa WSW 2.0mph /  3.2km/h 7.0mph /  11.3km/h 65% 0.00in /  0mm 193 W/m2
15:30 20.5 °F /  -6.4 °C 8.0 °F /  -13.3 °C 30.16in /  1021.2hPa SW 4.0mph /  6.4km/h 5.0mph /  8km/h 58% 0.00in /  0mm 144 W/m2
15:36 20.5 °F /  -6.4 °C 8.4 °F /  -13.1 °C 30.17in /  1021.6hPa West 4.0mph /  6.4km/h 5.0mph /  8km/h 59% 0.00in /  0mm 148 W/m2
15:42 20.9 °F /  -6.2 °C 8.4 °F /  -13.1 °C 30.16in /  1021.2hPa West 2.0mph /  3.2km/h 2.0mph /  3.2km/h 58% 0.00in /  0mm 362 W/m2
15:48 21.4 °F /  -5.9 °C 8.5 °F /  -13.1 °C 30.16in /  1021.2hPa NW 2.0mph /  3.2km/h 2.0mph /  3.2km/h 57% 0.00in /  0mm 267 W/m2
15:54 21.8 °F /  -5.7 °C 8.9 °F /  -12.8 °C 30.16in /  1021.2hPa West 3.0mph /  4.8km/h 5.0mph /  8km/h 57% 0.00in /  0mm 332 W/m2
16:04 21.4 °F /  -5.9 °C 7.7 °F /  -13.5 °C 30.16in /  1021.2hPa WSW 4.0mph /  6.4km/h 4.0mph /  6.4km/h 55% 0.00in /  0mm 294 W/m2
16:10 21.3 °F /  -5.9 °C 7.6 °F /  -13.6 °C 30.16in /  1021.2hPa WSW 4.0mph /  6.4km/h 4.0mph /  6.4km/h 55% 0.00in /  0mm 58 W/m2
16:16 20.9 °F /  -6.2 °C 7.2 °F /  -13.8 °C 30.16in /  1021.2hPa WSW 3.0mph /  4.8km/h 7.0mph /  11.3km/h 55% 0.00in /  0mm 44 W/m2
16:22 20.6 °F /  -6.3 °C 7.0 °F /  -13.9 °C 30.16in /  1021.2hPa West 3.0mph /  4.8km/h 3.0mph /  4.8km/h 55% 0.00in /  0mm 35 W/m2
16:28 20.4 °F /  -6.4 °C 6.8 °F /  -14 °C 30.17in /  1021.6hPa WSW 2.0mph /  3.2km/h 3.0mph /  4.8km/h 55% 0.00in /  0mm 28 W/m2
16:36 20.0 °F /  -6.7 °C 6.8 °F /  -14 °C 30.16in /  1021.2hPa WSW 3.0mph /  4.8km/h 3.0mph /  4.8km/h 56% 0.00in /  0mm 25 W/m2
16:44 19.7 °F /  -6.8 °C 6.5 °F /  -14.2 °C 30.16in /  1021.2hPa SW 3.0mph /  4.8km/h 3.0mph /  4.8km/h 56% 0.00in /  0mm 21 W/m2
16:50 19.5 °F /  -6.9 °C 6.3 °F /  -14.3 °C 30.17in /  1021.6hPa West 2.0mph /  3.2km/h 2.0mph /  3.2km/h 56% 0.00in /  0mm 19 W/m2
16:56 19.4 °F /  -7 °C 6.2 °F /  -14.3 °C 30.17in /  1021.6hPa West 2.0mph /  3.2km/h 3.0mph /  4.8km/h 56% 0.00in /  0mm 18 W/m2
17:02 19.2 °F /  -7.1 °C 6.4 °F /  -14.2 °C 30.17in /  1021.6hPa West 1.0mph /  1.6km/h 1.0mph /  1.6km/h 57% 0.00in /  0mm 14 W/m2
17:08 18.9 °F /  -7.3 °C 6.2 °F /  -14.3 °C 30.17in /  1021.6hPa Calm   1.0mph /  1.6km/h 57% 0.00in /  0mm 12 W/m2
17:14 18.6 °F /  -7.4 °C 6.3 °F /  -14.3 °C 30.17in /  1021.6hPa Calm     58% 0.00in /  0mm 9 W/m2
17:20 18.2 °F /  -7.7 °C 6.3 °F /  -14.3 °C 30.17in /  1021.6hPa Calm     59% 0.00in /  0mm 7 W/m2
17:26 17.9 °F /  -7.8 °C 6.0 °F /  -14.4 °C 30.19in /  1022.2hPa Calm     59% 0.00in /  0mm 0 W/m2
17:32 17.7 °F /  -7.9 °C 6.2 °F /  -14.3 °C 30.19in /  1022.2hPa Calm     60% 0.00in /  0mm 0 W/m2
17:38 17.2 °F /  -8.2 °C 6.0 °F /  -14.4 °C 30.19in /  1022.2hPa Calm     61% 0.00in /  0mm 0 W/m2
17:44 16.6 °F /  -8.6 °C 5.5 °F /  -14.7 °C 30.19in /  1022.2hPa Calm     61% 0.00in /  0mm 0 W/m2
17:50 15.7 °F /  -9.1 °C 5.3 °F /  -14.8 °C 30.19in /  1022.2hPa Calm     63% 0.00in /  0mm 0 W/m2
17:56 14.7 °F /  -9.6 °C 5.1 °F /  -14.9 °C 30.19in /  1022.2hPa Calm     65% 0.00in /  0mm 0 W/m2
18:02 13.8 °F /  -10.1 °C 4.5 °F /  -15.3 °C 30.19in /  1022.2hPa Calm     66% 0.00in /  0mm 0 W/m2
18:08 13.3 °F /  -10.4 °C 4.4 °F /  -15.3 °C 30.19in /  1022.2hPa Calm     67% 0.00in /  0mm 0 W/m2
18:14 13.0 °F /  -10.6 °C 4.4 °F /  -15.3 °C 30.20in /  1022.6hPa Calm     68% 0.00in /  0mm 0 W/m2
18:20 12.6 °F /  -10.8 °C 4.3 °F /  -15.4 °C 30.20in /  1022.6hPa Calm     69% 0.00in /  0mm 0 W/m2
18:26 12.2 °F /  -11 °C 4.3 °F /  -15.4 °C 30.20in /  1022.6hPa Calm     70% 0.00in /  0mm 0 W/m2
18:32 11.7 °F /  -11.3 °C 3.8 °F /  -15.7 °C 30.20in /  1022.6hPa Calm     70% 0.00in /  0mm 0 W/m2
18:38 11.2 °F /  -11.6 °C 3.6 °F /  -15.8 °C 30.20in /  1022.6hPa Calm     71% 0.00in /  0mm 0 W/m2
18:44 10.9 °F /  -11.7 °C 3.3 °F /  -15.9 °C 30.21in /  1022.9hPa Calm     71% 0.00in /  0mm 0 W/m2
18:50 10.5 °F /  -11.9 °C 3.3 °F /  -15.9 °C 30.22in /  1023.2hPa Calm     72% 0.00in /  0mm 0 W/m2
18:56 10.2 °F /  -12.1 °C 3.0 °F /  -16.1 °C 30.21in /  1022.9hPa Calm     72% 0.00in /  0mm 0 W/m2
19:02 10.0 °F /  -12.2 °C 3.1 °F /  -16.1 °C 30.21in /  1022.9hPa Calm     73% 0.00in /  0mm 0 W/m2
19:08 9.7 °F /  -12.4 °C 2.8 °F /  -16.2 °C 30.21in /  1022.9hPa Calm     73% 0.00in /  0mm 0 W/m2
19:14 9.4 °F /  -12.6 °C 2.5 °F /  -16.4 °C 30.21in /  1022.9hPa Calm     73% 0.00in /  0mm 0 W/m2
19:20 8.9 °F /  -12.8 °C 2.0 °F /  -16.7 °C 30.22in /  1023.2hPa Calm     73% 0.00in /  0mm 0 W/m2
19:26 8.5 °F /  -13.1 °C 1.9 °F /  -16.7 °C 30.22in /  1023.2hPa Calm     74% 0.00in /  0mm 0 W/m2
19:32 8.2 °F /  -13.2 °C 1.6 °F /  -16.9 °C 30.22in /  1023.2hPa Calm     74% 0.00in /  0mm 0 W/m2
19:38 8.3 °F /  -13.2 °C 2.0 °F /  -16.7 °C 30.21in /  1022.9hPa Calm     75% 0.00in /  0mm 0 W/m2
19:44 8.1 °F /  -13.3 °C 1.8 °F /  -16.8 °C 30.21in /  1022.9hPa Calm     75% 0.00in /  0mm 0 W/m2
19:50 7.8 °F /  -13.4 °C 1.8 °F /  -16.8 °C 30.21in /  1022.9hPa Calm     76% 0.00in /  0mm 0 W/m2
19:56 7.3 °F /  -13.7 °C 1.3 °F /  -17.1 °C 30.21in /  1022.9hPa Calm     76% 0.00in /  0mm 0 W/m2
20:02 7.0 °F /  -13.9 °C 1.3 °F /  -17.1 °C 30.21in /  1022.9hPa Calm     77% 0.00in /  0mm 0 W/m2
20:08 6.6 °F /  -14.1 °C 0.9 °F /  -17.3 °C 30.21in /  1022.9hPa Calm     77% 0.00in /  0mm 0 W/m2
20:14 6.5 °F /  -14.2 °C 0.8 °F /  -17.3 °C 30.21in /  1022.9hPa Calm     77% 0.00in /  0mm 0 W/m2
20:20 6.3 °F /  -14.3 °C 0.9 °F /  -17.3 °C 30.21in /  1022.9hPa Calm     78% 0.00in /  0mm 0 W/m2
20:26 6.3 °F /  -14.3 °C 0.9 °F /  -17.3 °C 30.22in /  1023.2hPa Calm     78% 0.00in /  0mm 0 W/m2
20:32 6.3 °F /  -14.3 °C 1.2 °F /  -17.1 °C 30.22in /  1023.2hPa Calm     79% 0.00in /  0mm 0 W/m2
20:38 6.4 °F /  -14.2 °C 1.3 °F /  -17.1 °C 30.22in /  1023.2hPa Calm     79% 0.00in /  0mm 0 W/m2
20:44 6.7 °F /  -14.1 °C 1.8 °F /  -16.8 °C 30.22in /  1023.2hPa Calm     80% 0.00in /  0mm 0 W/m2
20:52 6.7 °F /  -14.1 °C 1.8 °F /  -16.8 °C 30.21in /  1022.9hPa Calm     80% 0.00in /  0mm 0 W/m2
20:58 6.7 °F /  -14.1 °C 1.8 °F /  -16.8 °C 30.21in /  1022.9hPa Calm     80% 0.00in /  0mm 0 W/m2
21:04 6.7 °F /  -14.1 °C 1.8 °F /  -16.8 °C 30.21in /  1022.9hPa Calm     80% 0.00in /  0mm 0 W/m2
21:10 6.9 °F /  -13.9 °C 2.0 °F /  -16.7 °C 30.22in /  1023.2hPa Calm     80% 0.00in /  0mm 0 W/m2
21:16 7.0 °F /  -13.9 °C 2.1 °F /  -16.6 °C 30.22in /  1023.2hPa Calm     80% 0.00in /  0mm 0 W/m2
21:22 7.2 °F /  -13.8 °C 2.6 °F /  -16.3 °C 30.22in /  1023.2hPa Calm     81% 0.00in /  0mm 0 W/m2
21:28 7.3 °F /  -13.7 °C 2.7 °F /  -16.3 °C 30.22in /  1023.2hPa Calm     81% 0.00in /  0mm 0 W/m2
21:34 7.6 °F /  -13.6 °C 3.0 °F /  -16.1 °C 30.22in /  1023.2hPa Calm     81% 0.00in /  0mm 0 W/m2
21:40 8.0 °F /  -13.3 °C 3.4 °F /  -15.9 °C 30.22in /  1023.2hPa Calm     81% 0.00in /  0mm 0 W/m2
21:46 8.1 °F /  -13.3 °C 3.5 °F /  -15.8 °C 30.22in /  1023.2hPa Calm     81% 0.00in /  0mm 0 W/m2
21:52 8.0 °F /  -13.3 °C 3.4 °F /  -15.9 °C 30.22in /  1023.2hPa Calm     81% 0.00in /  0mm 0 W/m2
21:58 7.9 °F /  -13.4 °C 3.3 °F /  -15.9 °C 30.22in /  1023.2hPa Calm     81% 0.00in /  0mm 0 W/m2
22:04 7.9 °F /  -13.4 °C 3.3 °F /  -15.9 °C 30.22in /  1023.2hPa Calm     81% 0.00in /  0mm 0 W/m2
22:10 7.8 °F /  -13.4 °C 3.4 °F /  -15.9 °C 30.21in /  1022.9hPa Calm     82% 0.00in /  0mm 0 W/m2
22:16 7.8 °F /  -13.4 °C 3.4 °F /  -15.9 °C 30.21in /  1022.9hPa Calm     82% 0.00in /  0mm 0 W/m2
22:22 7.8 °F /  -13.4 °C 3.4 °F /  -15.9 °C 30.21in /  1022.9hPa Calm     82% 0.00in /  0mm 0 W/m2
22:28 7.8 °F /  -13.4 °C 3.4 °F /  -15.9 °C 30.21in /  1022.9hPa Calm     82% 0.00in /  0mm 0 W/m2
22:34 8.0 °F /  -13.3 °C 3.6 °F /  -15.8 °C 30.21in /  1022.9hPa Calm     82% 0.00in /  0mm 0 W/m2
22:40 8.8 °F /  -12.9 °C 4.7 °F /  -15.2 °C 30.21in /  1022.9hPa Calm     83% 0.00in /  0mm 0 W/m2
22:46 9.7 °F /  -12.4 °C 5.6 °F /  -14.7 °C 30.21in /  1022.9hPa Calm     83% 0.00in /  0mm 0 W/m2
22:52 10.1 °F /  -12.2 °C 6.0 °F /  -14.4 °C 30.21in /  1022.9hPa Calm     83% 0.00in /  0mm 0 W/m2
22:58 10.2 °F /  -12.1 °C 6.1 °F /  -14.4 °C 30.21in /  1022.9hPa Calm     83% 0.00in /  0mm 0 W/m2
23:06 10.5 °F /  -11.9 °C 6.6 °F /  -14.1 °C 30.21in /  1022.9hPa Calm     84% 0.00in /  0mm 0 W/m2
23:12 10.7 °F /  -11.8 °C 6.6 °F /  -14.1 °C 30.21in /  1022.9hPa Calm     83% 0.00in /  0mm 0 W/m2
23:18 11.0 °F /  -11.7 °C 7.1 °F /  -13.8 °C 30.21in /  1022.9hPa Calm     84% 0.00in /  0mm 0 W/m2
23:24 11.1 °F /  -11.6 °C 7.2 °F /  -13.8 °C 30.22in /  1023.2hPa Calm     84% 0.00in /  0mm 0 W/m2
23:30 11.5 °F /  -11.4 °C 7.3 °F /  -13.7 °C 30.22in /  1023.2hPa Calm     83% 0.00in /  0mm 0 W/m2
23:36 11.8 °F /  -11.2 °C 7.6 °F /  -13.6 °C 30.21in /  1022.9hPa Calm     83% 0.00in /  0mm 0 W/m2
23:42 12.0 °F /  -11.1 °C 7.8 °F /  -13.4 °C 30.21in /  1022.9hPa Calm     83% 0.00in /  0mm 0 W/m2
23:48 12.1 °F /  -11.1 °C 7.9 °F /  -13.4 °C 30.21in /  1022.9hPa Calm     83% 0.00in /  0mm 0 W/m2
23:54 12.2 °F /  -11 °C 8.0 °F /  -13.3 °C 30.22in /  1023.2hPa Calm     83% 0.00in /  0mm 0 W/m2
Country Meadow, Clay, NY, USA
Compliments of Weather Underground - 2 mb